Time;durP1;ratioP1;P1;durP2;ratioP2;P2;SDS_P1;SDS_P2;PMS_P1;PMS_P2;Temp;Humidity;BMP_temperature;BMP_pressure;BME280_temperature;BME280_humidity;BME280_pressure;Samples;Min_cycle;Max_cycle;Signal;HPM_P1;HPM_P2
2022/05/26 00:00:07;;;;;;;2.57;0.67;;;15.40;99.90;;;;;;5101747;28;20171;-44
2022/05/26 00:02:32;;;;;;;1.27;0.80;;;15.40;99.90;;;;;;5066720;28;20175;-42
2022/05/26 00:04:58;;;;;;;2.63;0.93;;;15.40;99.90;;;;;;5102147;28;20615;-44
2022/05/26 00:07:23;;;;;;;1.17;0.60;;;15.40;99.90;;;;;;5083293;28;20662;-44
2022/05/26 00:09:49;;;;;;;2.77;0.60;;;15.30;99.90;;;;;;5101336;28;20179;-44
2022/05/26 00:12:16;;;;;;;3.67;0.90;;;15.30;99.90;;;;;;5102179;28;20170;-44
2022/05/26 00:14:42;;;;;;;2.07;1.00;;;15.40;99.90;;;;;;5101874;28;20330;-44
2022/05/26 00:17:09;;;;;;;1.90;0.60;;;15.30;99.90;;;;;;5101635;28;20179;-43
2022/05/26 00:19:34;;;;;;;1.00;0.70;;;15.30;99.90;;;;;;5101887;28;20186;-43
2022/05/26 00:22:00;;;;;;;5.00;1.00;;;15.30;99.90;;;;;;5101583;28;20174;-44
2022/05/26 00:24:25;;;;;;;2.13;0.67;;;15.30;99.90;;;;;;5101453;28;20179;-44
2022/05/26 00:26:51;;;;;;;3.87;0.70;;;15.30;99.90;;;;;;5104326;28;20603;-44
2022/05/26 00:29:18;;;;;;;1.07;0.70;;;15.30;99.90;;;;;;5104721;28;20194;-45
2022/05/26 00:31:43;;;;;;;1.63;0.80;;;15.30;99.90;;;;;;5101047;28;20519;-44
2022/05/26 00:34:09;;;;;;;3.87;0.93;;;15.30;99.90;;;;;;5099545;28;20199;-44
2022/05/26 00:36:38;;;;;;;1.17;0.70;;;15.30;99.90;;;;;;5099006;28;20171;-45
2022/05/26 00:39:08;;;;;;;0.50;0.50;;;15.30;99.90;;;;;;5099022;28;20199;-42
2022/05/26 00:41:37;;;;;;;0.60;0.50;;;15.30;99.90;;;;;;5099111;28;20190;-41
2022/05/26 00:44:03;;;;;;;4.50;0.90;;;15.20;99.90;;;;;;5098987;28;20171;-43
2022/05/26 00:46:41;;;;;;;2.30;0.70;;;15.30;99.90;;;;;;5098944;28;20655;-45
2022/05/26 00:49:12;;;;;;;0.87;0.60;;;15.30;99.90;;;;;;5099234;28;20198;-43
2022/05/26 00:51:38;;;;;;;3.90;0.90;;;15.20;99.90;;;;;;5098859;28;20202;-43
2022/05/26 00:54:17;;;;;;;1.47;0.73;;;15.20;99.90;;;;;;5098492;28;20205;-44
2022/05/26 00:56:59;;;;;;;2.37;0.97;;;15.30;99.90;;;;;;5099277;28;20167;-44
2022/05/26 00:59:39;;;;;;;2.40;0.67;;;15.20;99.90;;;;;;5098819;28;20256;-43
2022/05/26 01:02:05;;;;;;;0.60;0.50;;;15.20;99.90;;;;;;5098973;28;20555;-44
2022/05/26 01:04:37;;;;;;;1.47;0.70;;;15.20;99.90;;;;;;5098796;28;20171;-45
2022/05/26 01:07:12;;;;;;;2.77;0.70;;;15.20;99.90;;;;;;5098448;28;20162;-44
2022/05/26 01:09:38;;;;;;;1.47;0.90;;;15.20;99.90;;;;;;5097774;28;20656;-43
2022/05/26 01:12:04;;;;;;;4.67;0.57;;;15.20;99.90;;;;;;5098347;28;20182;-43
2022/05/26 01:14:34;;;;;;;2.63;0.90;;;15.20;99.90;;;;;;5097819;28;20197;-46
2022/05/26 01:17:14;;;;;;;3.03;0.83;;;15.10;99.90;;;;;;5098543;28;20262;-42
2022/05/26 01:19:40;;;;;;;1.47;0.80;;;15.10;99.90;;;;;;5098512;28;20159;-43
2022/05/26 01:22:49;;;;;;;0.70;0.70;;;15.20;99.90;;;;;;5098757;28;20231;-43
2022/05/26 01:25:52;;;;;;;2.03;0.80;;;15.20;99.90;;;;;;5097768;28;20179;-44
2022/05/26 01:28:40;;;;;;;2.47;0.90;;;15.10;99.90;;;;;;5098237;28;20210;-44
2022/05/26 01:31:24;;;;;;;2.00;0.70;;;15.10;99.90;;;;;;5096930;28;20257;-43
2022/05/26 01:34:05;;;;;;;1.53;0.70;;;15.10;99.90;;;;;;5097931;28;20190;-45
2022/05/26 01:36:49;;;;;;;1.10;0.70;;;15.10;99.90;;;;;;5097737;28;20163;-45
2022/05/26 01:39:42;;;;;;;0.60;0.50;;;15.00;99.90;;;;;;5097950;28;20198;-46
2022/05/26 01:42:20;;;;;;;0.93;0.67;;;15.10;99.90;;;;;;5097309;28;20159;-42
2022/05/26 01:44:55;;;;;;;0.80;0.70;;;15.00;99.90;;;;;;5097532;28;20186;-44
2022/05/26 01:47:41;;;;;;;0.80;0.77;;;15.00;99.90;;;;;;5097596;28;20205;-43
2022/05/26 01:50:21;;;;;;;1.33;0.87;;;15.10;99.90;;;;;;5096999;28;20175;-43
2022/05/26 01:52:58;;;;;;;4.03;0.80;;;15.00;99.90;;;;;;5097075;28;20159;-43
2022/05/26 01:55:47;;;;;;;0.60;0.60;;;15.00;99.90;;;;;;5100743;28;20195;-46
2022/05/26 01:58:19;;;;;;;0.50;0.50;;;15.00;99.90;;;;;;5082886;28;20191;-44
2022/05/26 02:00:46;;;;;;;1.40;0.73;;;15.00;99.90;;;;;;5100652;28;20251;-45
2022/05/26 02:03:15;;;;;;;1.07;0.60;;;15.00;99.90;;;;;;5101546;28;20250;-42
2022/05/26 02:06:07;;;;;;;1.80;0.60;;;15.00;99.90;;;;;;5100886;28;20209;-42
2022/05/26 02:09:01;;;;;;;2.10;0.93;;;15.00;99.90;;;;;;5101145;28;20224;-43
2022/05/26 02:11:26;;;;;;;1.50;0.83;;;15.00;99.90;;;;;;5099781;28;20187;-43
2022/05/26 02:13:55;;;;;;;1.03;0.80;;;15.00;99.90;;;;;;5100459;28;20680;-46
2022/05/26 02:16:41;;;;;;;1.17;0.73;;;15.00;99.90;;;;;;5102572;28;20190;-44
2022/05/26 02:19:21;;;;;;;0.73;0.70;;;15.00;99.90;;;;;;5101808;28;20689;-44
2022/05/26 02:22:11;;;;;;;2.27;1.03;;;14.90;99.90;;;;;;5102172;28;20193;-45
2022/05/26 02:24:43;;;;;;;1.47;0.80;;;15.00;99.90;;;;;;5077560;28;20638;-44
2022/05/26 02:27:09;;;;;;;3.60;1.03;;;15.00;99.90;;;;;;5101875;28;20571;-44
2022/05/26 02:29:55;;;;;;;1.50;0.63;;;14.90;99.90;;;;;;5101865;28;20186;-43
2022/05/26 02:32:44;;;;;;;2.30;1.00;;;14.90;99.90;;;;;;5087156;28;20177;-44
2022/05/26 02:35:14;;;;;;;1.50;0.90;;;14.90;99.90;;;;;;5101913;28;20647;-43
2022/05/26 02:37:42;;;;;;;1.40;1.00;;;14.90;99.90;;;;;;5101841;28;20190;-45
2022/05/26 02:40:08;;;;;;;3.20;1.10;;;14.90;99.90;;;;;;5103349;28;20175;-44
2022/05/26 02:42:47;;;;;;;2.90;1.10;;;14.80;99.90;;;;;;5102363;28;20179;-42
2022/05/26 02:45:19;;;;;;;2.43;1.27;;;14.80;99.90;;;;;;5102076;28;20167;-42
2022/05/26 02:47:54;;;;;;;2.40;1.07;;;14.80;99.90;;;;;;5102193;28;20696;-44
2022/05/26 02:51:03;;;;;;;7.00;1.43;;;14.80;99.90;;;;;;5102491;28;20517;-43
2022/05/26 02:53:37;;;;;;;2.80;1.30;;;14.80;99.90;;;;;;5019301;28;20220;-45
2022/05/26 02:56:20;;;;;;;4.37;1.40;;;14.80;99.90;;;;;;5003140;28;20260;-44
2022/05/26 02:59:02;;;;;;;1.80;1.50;;;14.80;99.90;;;;;;5075439;28;20203;-43
2022/05/26 03:01:57;;;;;;;4.40;1.33;;;14.70;99.90;;;;;;5101911;28;20611;-44
2022/05/26 03:04:29;;;;;;;2.50;1.20;;;14.70;99.90;;;;;;5099536;28;20195;-44
2022/05/26 03:07:03;;;;;;;4.03;1.67;;;14.70;99.90;;;;;;5100633;28;20619;-44
2022/05/26 03:09:34;;;;;;;5.23;1.67;;;14.70;99.90;;;;;;5101410;28;20167;-45
2022/05/26 03:11:59;;;;;;;5.87;1.53;;;14.70;99.90;;;;;;5101661;28;20167;-45
2022/05/26 03:14:26;;;;;;;6.97;1.93;;;14.70;99.90;;;;;;5102270;28;20209;-44
2022/05/26 03:16:52;;;;;;;11.53;1.37;;;14.70;99.90;;;;;;5101707;28;20600;-42
2022/05/26 03:19:18;;;;;;;5.20;2.10;;;14.70;99.90;;;;;;5101319;28;20202;-43
2022/05/26 03:21:45;;;;;;;4.43;2.07;;;14.60;99.90;;;;;;5100495;28;20205;-44
2022/05/26 03:24:11;;;;;;;12.73;2.07;;;14.70;99.90;;;;;;5101303;28;20638;-44
2022/05/26 03:26:37;;;;;;;6.20;1.87;;;14.60;99.90;;;;;;5100970;28;20203;-44
2022/05/26 03:29:04;;;;;;;8.03;2.33;;;14.60;99.90;;;;;;5101458;28;20672;-44
2022/05/26 03:31:30;;;;;;;4.53;1.60;;;14.60;99.90;;;;;;5101214;28;20194;-45
2022/05/26 03:42:11;;;;;;;5.53;2.07;;;14.60;99.90;;;;;;5100776;28;20247;-44
2022/05/26 03:44:37;;;;;;;5.37;2.10;;;14.60;99.90;;;;;;5101109;28;20174;-44
2022/05/26 03:47:03;;;;;;;7.70;2.10;;;14.60;99.90;;;;;;5100218;28;20270;-44
2022/05/26 03:49:29;;;;;;;3.90;1.90;;;14.60;99.90;;;;;;5082262;28;20261;-45
2022/05/26 03:51:57;;;;;;;6.00;2.33;;;14.60;99.90;;;;;;5100716;28;20202;-45
2022/05/26 03:54:23;;;;;;;5.80;2.43;;;14.60;99.90;;;;;;5100690;28;20211;-44
2022/05/26 03:56:49;;;;;;;4.37;2.00;;;14.60;99.90;;;;;;5081227;28;20583;-43
2022/05/26 03:59:14;;;;;;;7.77;2.13;;;14.60;99.90;;;;;;5099846;28;20195;-44
2022/05/26 04:01:40;;;;;;;4.87;1.83;;;14.50;99.90;;;;;;5099791;28;20631;-44
2022/05/26 04:04:07;;;;;;;3.47;1.70;;;14.50;99.90;;;;;;5100850;28;20240;-45
2022/05/26 04:06:33;;;;;;;4.90;1.93;;;14.50;99.90;;;;;;5100219;28;20202;-44
2022/05/26 04:08:59;;;;;;;10.87;2.40;;;14.50;99.90;;;;;;5100395;28;20211;-44
2022/05/26 04:11:25;;;;;;;8.27;2.30;;;14.50;99.90;;;;;;5100125;28;20182;-45
2022/05/26 04:13:52;;;;;;;7.60;2.03;;;14.50;99.90;;;;;;5081815;28;20202;-43
2022/05/26 04:16:18;;;;;;;4.80;2.03;;;14.50;99.90;;;;;;5100060;28;20258;-44
2022/05/26 04:18:43;;;;;;;7.50;2.40;;;14.60;99.90;;;;;;5100091;28;20566;-44
2022/05/26 04:21:10;;;;;;;7.07;2.10;;;14.50;99.90;;;;;;5100118;28;20201;-45
2022/05/26 04:23:36;;;;;;;4.60;1.97;;;14.50;99.90;;;;;;5102382;28;20529;-44
2022/05/26 04:26:04;;;;;;;3.87;2.07;;;14.50;99.90;;;;;;5101171;28;20172;-44
2022/05/26 04:28:30;;;;;;;6.00;2.33;;;14.50;99.90;;;;;;5082827;28;20206;-43
2022/05/26 04:30:56;;;;;;;6.60;2.27;;;14.60;99.90;;;;;;5101577;28;20228;-45
2022/05/26 04:33:22;;;;;;;7.30;2.57;;;14.60;99.90;;;;;;5099396;28;20179;-45
2022/05/26 04:35:47;;;;;;;7.97;2.13;;;14.60;99.90;;;;;;5098369;28;20649;-43
2022/05/26 04:38:13;;;;;;;5.33;2.73;;;14.60;99.90;;;;;;5098467;28;20199;-43
2022/05/26 04:40:39;;;;;;;6.37;2.40;;;14.60;99.90;;;;;;5098268;28;20174;-43
2022/05/26 04:43:06;;;;;;;8.43;2.30;;;14.60;99.90;;;;;;5098611;28;20177;-45
2022/05/26 04:45:32;;;;;;;6.33;2.40;;;14.60;99.90;;;;;;5098098;28;20185;-43
2022/05/26 04:47:57;;;;;;;9.50;2.73;;;14.70;99.90;;;;;;5097705;28;20226;-44
2022/05/26 04:50:23;;;;;;;9.03;2.93;;;14.70;99.90;;;;;;5098236;28;20650;-42
2022/05/26 04:52:49;;;;;;;5.37;2.30;;;14.60;99.90;;;;;;5097261;28;20174;-44
2022/05/26 04:55:15;;;;;;;7.33;3.10;;;14.70;99.90;;;;;;5098713;28;20205;-45
2022/05/26 04:57:41;;;;;;;11.07;2.13;;;14.70;99.90;;;;;;5099393;28;20198;-45
2022/05/26 05:00:11;;;;;;;6.33;2.47;;;14.60;99.90;;;;;;5098367;28;20179;-43
2022/05/26 05:02:37;;;;;;;9.17;2.60;;;14.70;99.90;;;;;;5098997;28;20242;-43
2022/05/26 05:05:04;;;;;;;4.93;2.30;;;14.70;99.90;;;;;;5098671;28;20210;-43
2022/05/26 05:07:30;;;;;;;5.97;2.30;;;14.70;99.90;;;;;;5098963;28;20195;-43
2022/05/26 05:09:55;;;;;;;7.40;2.63;;;14.80;99.90;;;;;;5099185;28;20247;-44
2022/05/26 05:12:21;;;;;;;5.53;2.10;;;14.80;99.90;;;;;;5098657;28;20239;-44
2022/05/26 05:14:50;;;;;;;8.93;2.90;;;14.80;99.90;;;;;;5098770;28;20202;-46
2022/05/26 05:17:18;;;;;;;9.57;2.47;;;14.90;99.90;;;;;;5098090;28;20209;-43
2022/05/26 05:19:45;;;;;;;7.13;2.67;;;14.90;99.90;;;;;;5098854;28;20191;-43
2022/05/26 05:22:16;;;;;;;5.73;2.50;;;15.00;99.90;;;;;;5099219;28;20311;-44
2022/05/26 05:24:44;;;;;;;6.37;2.97;;;15.00;99.90;;;;;;5098948;28;20163;-44
2022/05/26 05:27:30;;;;;;;6.93;2.90;;;15.10;99.90;;;;;;5098665;28;20177;-43
2022/05/26 05:29:59;;;;;;;11.63;2.90;;;15.10;99.90;;;;;;5097322;28;20167;-43
2022/05/26 05:32:32;;;;;;;8.03;2.90;;;15.20;99.90;;;;;;5098747;28;20275;-44
2022/05/26 05:35:03;;;;;;;7.73;2.83;;;15.30;99.90;;;;;;5080089;28;20203;-43
2022/05/26 05:37:33;;;;;;;9.40;3.23;;;15.30;99.90;;;;;;5098494;28;20534;-44
2022/05/26 05:40:00;;;;;;;6.53;2.73;;;15.30;99.90;;;;;;5098608;28;20638;-43
2022/05/26 05:42:28;;;;;;;8.13;2.93;;;15.40;99.90;;;;;;5098469;28;20169;-45
2022/05/26 05:44:54;;;;;;;6.33;3.17;;;15.40;99.90;;;;;;5098996;28;20692;-43
2022/05/26 05:47:19;;;;;;;11.53;3.33;;;15.50;99.90;;;;;;5098906;28;20242;-42
2022/05/26 05:49:45;;;;;;;9.47;2.70;;;15.60;99.90;;;;;;5081638;28;20292;-44
2022/05/26 05:52:13;;;;;;;6.90;2.93;;;15.70;99.90;;;;;;5098786;28;20189;-44
2022/05/26 05:54:39;;;;;;;10.03;3.63;;;15.70;99.90;;;;;;5098633;28;20198;-41
2022/05/26 05:57:05;;;;;;;5.97;3.60;;;15.90;99.90;;;;;;5098897;28;20203;-43
2022/05/26 05:59:31;;;;;;;9.27;3.67;;;15.90;99.90;;;;;;5099364;28;20177;-44
2022/05/26 06:01:57;;;;;;;8.17;2.80;;;16.00;99.90;;;;;;5081708;28;20618;-42
2022/05/26 06:04:23;;;;;;;11.50;3.47;;;16.10;99.90;;;;;;5099531;28;20201;-43
2022/05/26 06:06:49;;;;;;;6.90;3.27;;;16.10;99.90;;;;;;5100081;28;20185;-45
2022/05/26 06:09:16;;;;;;;14.07;3.33;;;16.10;99.90;;;;;;5099342;28;20245;-44
2022/05/26 06:11:42;;;;;;;8.47;2.97;;;16.20;99.90;;;;;;5099669;28;20171;-42
2022/05/26 06:14:08;;;;;;;6.30;3.27;;;16.20;99.90;;;;;;5099380;28;20215;-43
2022/05/26 06:16:34;;;;;;;12.07;4.00;;;16.20;99.90;;;;;;5099009;28;20183;-43
2022/05/26 06:19:00;;;;;;;8.07;3.97;;;16.30;99.90;;;;;;5080802;28;20195;-42
2022/05/26 06:21:26;;;;;;;10.67;3.93;;;16.40;99.90;;;;;;5097760;28;20205;-43
2022/05/26 06:23:56;;;;;;;10.27;4.00;;;16.40;99.90;;;;;;5098351;28;20179;-42
2022/05/26 06:26:31;;;;;;;12.17;4.80;;;16.40;99.90;;;;;;5098146;28;20160;-44
2022/05/26 06:37:13;;;;;;;7.43;3.47;;;16.50;99.90;;;;;;5098359;28;20175;-43
2022/05/26 06:37:16;;;;;;;10.67;3.93;;;16.50;99.90;;;;;;5066074;28;20187;-43
2022/05/26 06:39:42;;;;;;;7.20;3.50;;;16.50;99.90;;;;;;5098405;28;20166;-43
2022/05/26 06:42:09;;;;;;;10.70;3.50;;;16.50;99.90;;;;;;5101719;28;20174;-44
2022/05/26 06:44:44;;;;;;;13.57;3.37;;;16.60;99.90;;;;;;5102079;28;20175;-42
2022/05/26 06:47:16;;;;;;;9.17;3.23;;;16.60;99.90;;;;;;5101260;28;20240;-45
2022/05/26 06:49:42;;;;;;;10.07;3.73;;;16.70;99.90;;;;;;5101197;28;20182;-44
2022/05/26 06:52:09;;;;;;;9.13;3.53;;;16.70;99.90;;;;;;5101093;28;20193;-44
2022/05/26 06:54:37;;;;;;;12.33;3.50;;;16.70;99.90;;;;;;5101294;28;20198;-44
2022/05/26 06:57:05;;;;;;;10.50;3.50;;;16.80;99.90;;;;;;5099969;28;20584;-45
2022/05/26 06:59:31;;;;;;;13.00;3.63;;;17.00;99.90;;;;;;5100365;28;20170;-44
2022/05/26 07:01:56;;;;;;;10.10;3.60;;;17.10;99.90;;;;;;5099975;28;20227;-44
2022/05/26 07:04:22;;;;;;;7.67;3.63;;;17.00;99.90;;;;;;5065716;28;20202;-44
2022/05/26 07:06:50;;;;;;;8.47;3.37;;;17.00;99.90;;;;;;5082342;28;20590;-45
2022/05/26 07:09:16;;;;;;;10.57;3.83;;;17.00;99.90;;;;;;5099704;28;20195;-44
2022/05/26 07:11:42;;;;;;;9.60;3.70;;;17.10;99.90;;;;;;5100391;28;20210;-45
2022/05/26 07:14:08;;;;;;;7.83;3.33;;;17.20;99.90;;;;;;5100304;28;20203;-45
2022/05/26 07:16:34;;;;;;;7.93;3.33;;;17.20;99.90;;;;;;5100907;28;20182;-44
2022/05/26 07:18:59;;;;;;;9.30;3.20;;;17.30;99.90;;;;;;5101392;28;20197;-44
2022/05/26 07:21:25;;;;;;;13.83;3.53;;;17.30;99.90;;;;;;5097461;28;20719;-39
2022/05/26 07:23:51;;;;;;;9.03;3.67;;;17.40;99.90;;;;;;5096343;28;20667;-41
2022/05/26 07:26:17;;;;;;;7.00;2.97;;;17.40;99.90;;;;;;5096798;28;20179;-40
2022/05/26 07:28:43;;;;;;;9.27;3.47;;;17.40;99.90;;;;;;5096568;28;20558;-41
2022/05/26 07:31:10;;;;;;;8.67;3.30;;;17.40;99.90;;;;;;5095944;28;20171;-40
2022/05/26 07:33:36;;;;;;;9.50;3.50;;;17.30;99.90;;;;;;5095768;28;20224;-38
2022/05/26 07:36:03;;;;;;;6.33;2.83;;;17.10;99.90;;;;;;5095696;28;20169;-39
2022/05/26 07:41:25;;;;;;;7.57;3.07;;;17.50;99.90;;;;;;5095857;28;20162;-40
2022/05/26 07:43:58;;;;;;;5.93;3.23;;;17.60;99.90;;;;;;5095859;28;20316;-39
2022/05/26 07:46:25;;;;;;;10.07;3.37;;;17.60;99.90;;;;;;5095943;28;20155;-39
2022/05/26 07:48:52;;;;;;;10.67;3.60;;;17.70;99.90;;;;;;5095369;28;20202;-40
2022/05/26 07:51:20;;;;;;;7.00;3.13;;;17.60;99.90;;;;;;5094380;28;20271;-40
2022/05/26 07:53:46;;;;;;;9.07;3.23;;;17.70;99.90;;;;;;5095546;28;20591;-41
2022/05/26 07:56:12;;;;;;;9.13;3.53;;;17.80;99.90;;;;;;5095454;28;20178;-37
2022/05/26 07:58:38;;;;;;;9.63;3.37;;;17.80;99.90;;;;;;5095168;28;20696;-38
2022/05/26 08:01:04;;;;;;;8.87;3.40;;;17.80;99.90;;;;;;5095468;28;20534;-39
2022/05/26 08:03:31;;;;;;;8.40;3.10;;;17.70;99.90;;;;;;5095226;28;20214;-38
2022/05/26 08:05:56;;;;;;;7.60;3.37;;;17.60;99.90;;;;;;5095247;28;20171;-38
2022/05/26 08:08:22;;;;;;;7.00;3.13;;;17.70;99.90;;;;;;5095043;28;20248;-41
2022/05/26 08:10:48;;;;;;;7.73;3.10;;;17.70;99.90;;;;;;5079639;28;20771;-40
2022/05/26 08:13:14;;;;;;;8.33;3.03;;;17.90;99.90;;;;;;5095264;28;20175;-40
2022/05/26 08:15:42;;;;;;;7.57;3.17;;;18.00;99.90;;;;;;5095537;28;20214;-39
2022/05/26 08:18:08;;;;;;;6.57;2.93;;;18.30;99.90;;;;;;5095158;28;20203;-40
2022/05/26 08:20:33;;;;;;;6.90;2.73;;;18.40;99.90;;;;;;5094650;28;20194;-40
2022/05/26 08:22:59;;;;;;;7.80;3.00;;;18.60;99.90;;;;;;5095015;28;20173;-38
2022/05/26 08:25:26;;;;;;;10.83;3.17;;;18.60;99.90;;;;;;5094789;28;20635;-41
2022/05/26 08:27:52;;;;;;;6.67;3.30;;;18.70;99.90;;;;;;5095034;28;20209;-40
2022/05/26 08:30:18;;;;;;;8.50;2.83;;;18.70;99.90;;;;;;5094860;28;20182;-39
2022/05/26 08:32:44;;;;;;;4.23;2.33;;;18.60;99.90;;;;;;5076338;28;20634;-40
2022/05/26 08:35:10;;;;;;;6.27;2.33;;;18.60;99.90;;;;;;5094379;28;20210;-39
2022/05/26 08:37:36;;;;;;;8.00;2.80;;;18.50;99.90;;;;;;5094360;28;20662;-37
2022/05/26 08:40:03;;;;;;;5.10;2.10;;;18.40;99.90;;;;;;5077076;28;20254;-38
2022/05/26 08:42:31;;;;;;;5.57;2.30;;;18.30;99.90;;;;;;5094583;28;20550;-39
2022/05/26 08:45:04;;;;;;;6.37;2.40;;;18.30;99.90;;;;;;5076650;28;20247;-39
2022/05/26 08:47:45;;;;;;;9.43;3.00;;;18.40;99.90;;;;;;5077631;28;20198;-40
2022/05/26 08:50:22;;;;;;;8.00;3.23;;;18.70;99.90;;;;;;5094945;28;20171;-40
2022/05/26 08:53:21;;;;;;;6.60;2.30;;;19.00;99.90;;;;;;5094442;28;20166;-39
2022/05/26 08:55:50;;;;;;;7.67;2.43;;;19.20;99.90;;;;;;5079700;28;20198;-40
2022/05/26 08:58:21;;;;;;;6.67;2.73;;;19.40;99.90;;;;;;5094056;28;20285;-39
2022/05/26 09:00:50;;;;;;;6.10;2.73;;;19.50;99.90;;;;;;5094284;28;20666;-37
2022/05/26 09:03:31;;;;;;;9.37;3.10;;;19.40;99.90;;;;;;5094141;28;20224;-39
2022/05/26 09:06:05;;;;;;;8.53;2.80;;;19.40;99.90;;;;;;5094099;28;20163;-39
2022/05/26 09:14:08;;;;;;;5.40;2.03;;;19.80;99.90;;;;;;5093701;28;20222;-40
2022/05/26 09:16:40;;;;;;;6.07;2.10;;;19.90;99.90;;;;;;5093655;28;20643;-39
2022/05/26 09:19:17;;;;;;;6.60;2.37;;;19.80;99.90;;;;;;5093752;28;20210;-37
2022/05/26 09:21:45;;;;;;;5.83;2.20;;;20.00;99.90;;;;;;5093702;28;20190;-40
2022/05/26 09:24:29;;;;;;;6.67;2.77;;;20.10;99.90;;;;;;5093670;28;20631;-37
2022/05/26 09:27:28;;;;;;;11.33;2.77;;;20.20;99.90;;;;;;5093841;28;20195;-41
2022/05/26 09:29:54;;;;;;;7.53;2.20;;;20.20;99.90;;;;;;5091344;28;20198;-39
2022/05/26 09:32:30;;;;;;;7.87;2.40;;;20.20;99.90;;;;;;5093669;28;20647;-40
2022/05/26 09:35:10;;;;;;;6.17;2.30;;;20.20;99.90;;;;;;5093669;28;20197;-40
2022/05/26 09:37:44;;;;;;;6.13;1.93;;;20.20;99.90;;;;;;5093554;28;20273;-39
2022/05/26 09:40:21;;;;;;;6.27;1.97;;;20.30;99.90;;;;;;5093842;28;20208;-37
2022/05/26 09:42:56;;;;;;;6.30;2.07;;;20.50;99.90;;;;;;5093458;28;20217;-40
2022/05/26 09:45:23;;;;;;;5.83;2.23;;;20.80;99.90;;;;;;5093669;28;20575;-40
2022/05/26 09:48:00;;;;;;;4.97;2.00;;;20.90;99.90;;;;;;5093358;28;20199;-40
2022/05/26 09:50:31;;;;;;;5.20;1.87;;;21.10;99.90;;;;;;5093779;28;20170;-38
2022/05/26 09:52:57;;;;;;;4.70;1.80;;;21.10;99.90;;;;;;5093760;28;20174;-38
2022/05/26 09:55:28;;;;;;;5.93;2.53;;;21.10;99.90;;;;;;5093358;28;20274;-40
2022/05/26 09:58:09;;;;;;;3.70;1.90;;;21.10;99.90;;;;;;5093839;28;20203;-37
2022/05/26 10:00:37;;;;;;;4.57;1.63;;;21.00;99.90;;;;;;5093283;28;20179;-41
2022/05/26 10:03:21;;;;;;;5.53;2.00;;;21.10;99.90;;;;;;5093564;28;20175;-39
2022/05/26 10:06:25;;;;;;;6.20;1.80;;;21.30;99.90;;;;;;5093287;28;20183;-39
2022/05/26 10:09:04;;;;;;;5.20;1.83;;;21.20;99.90;;;;;;5082365;28;20305;-42
2022/05/26 10:11:46;;;;;;;7.80;2.13;;;21.20;99.90;;;;;;5093672;28;20175;-38
2022/05/26 10:14:24;;;;;;;5.67;2.10;;;21.20;99.90;;;;;;5093445;28;20332;-40
2022/05/26 10:17:37;;;;;;;4.47;1.80;;;21.20;99.90;;;;;;5097461;28;20202;-39
2022/05/26 10:20:18;;;;;;;5.77;1.83;;;21.20;99.90;;;;;;5015415;28;20288;-39
2022/05/26 10:23:16;;;;;;;5.63;1.70;;;21.30;99.90;;;;;;5088487;28;20213;-41
2022/05/26 10:26:11;;;;;;;2.73;1.40;;;21.30;99.90;;;;;;5097402;28;20162;-39
2022/05/26 10:29:19;;;;;;;4.90;1.63;;;21.30;99.90;;;;;;5097038;28;20255;-38
2022/05/26 10:31:45;;;;;;;3.93;1.67;;;21.30;99.90;;;;;;5097489;28;20518;-39
2022/05/26 10:34:31;;;;;;;4.53;1.40;;;21.40;99.90;;;;;;5096759;28;20198;-40
2022/05/26 10:37:16;;;;;;;3.57;1.43;;;21.30;99.90;;;;;;5096846;28;20167;-39
2022/05/26 10:39:58;;;;;;;3.40;1.87;;;21.40;99.90;;;;;;5097186;28;20535;-39
2022/05/26 10:42:31;;;;;;;6.13;1.50;;;21.50;99.90;;;;;;5096858;28;20187;-40
2022/05/26 10:45:06;;;;;;;2.93;1.43;;;21.70;99.90;;;;;;5097147;28;20224;-37
2022/05/26 10:47:40;;;;;;;4.37;1.37;;;21.80;99.90;;;;;;5096565;28;20202;-37
2022/05/26 10:50:33;;;;;;;5.10;1.60;;;21.90;99.90;;;;;;5098142;28;20170;-39
2022/05/26 10:53:06;;;;;;;5.03;1.40;;;21.80;99.90;;;;;;5096810;28;20167;-40
2022/05/26 10:55:40;;;;;;;3.53;1.60;;;21.70;99.90;;;;;;5096578;28;20191;-39
2022/05/26 10:58:37;;;;;;;4.33;1.13;;;21.70;99.90;;;;;;5096509;28;20244;-39
2022/05/26 11:01:11;;;;;;;4.53;1.60;;;21.80;99.90;;;;;;5075399;28;20194;-39
2022/05/26 11:03:47;;;;;;;3.03;1.37;;;22.00;99.90;;;;;;5099121;28;20167;-39
2022/05/26 11:06:30;;;;;;;4.23;1.53;;;21.80;99.90;;;;;;5096529;28;20174;-39
2022/05/26 11:09:08;;;;;;;2.80;1.30;;;21.60;99.90;;;;;;5096581;28;20217;-40
2022/05/26 11:11:50;;;;;;;5.13;1.80;;;21.50;99.90;;;;;;5096580;28;20197;-39
2022/05/26 11:17:42;;;;;;;6.33;2.00;;;21.30;99.90;;;;;;5096728;28;20208;-39
2022/05/26 11:20:27;;;;;;;5.63;1.60;;;21.60;99.90;;;;;;5096294;28;20647;-39
2022/05/26 11:22:57;;;;;;;5.93;1.50;;;21.70;99.90;;;;;;5098538;28;20619;-45
2022/05/26 11:25:28;;;;;;;4.40;1.63;;;21.80;99.90;;;;;;5099452;28;20178;-45
2022/05/26 11:28:10;;;;;;;6.60;1.80;;;21.90;99.90;;;;;;5098174;28;20276;-46
2022/05/26 11:36:47;;;;;;;4.73;1.53;;;21.90;99.90;;;;;;5102973;28;20658;-46
2022/05/26 11:39:35;;;;;;;3.80;1.67;;;22.00;99.90;;;;;;5101013;28;20187;-45
2022/05/26 11:42:06;;;;;;;4.10;1.43;;;22.20;99.90;;;;;;5099519;28;20159;-46
2022/05/26 11:44:41;;;;;;;4.47;1.57;;;22.30;99.90;;;;;;5099286;28;20167;-46
2022/05/26 11:47:31;;;;;;;3.50;1.40;;;22.30;99.90;;;;;;5081135;28;20170;-45
2022/05/26 11:49:57;;;;;;;3.33;1.23;;;22.30;99.90;;;;;;5099343;28;20159;-44
2022/05/26 11:52:26;;;;;;;3.03;1.40;;;22.20;99.90;;;;;;5099354;28;20534;-46
2022/05/26 11:55:03;;;;;;;4.60;1.70;;;22.10;99.90;;;;;;5100401;28;20202;-46
2022/05/26 11:57:40;;;;;;;3.93;1.50;;;21.90;99.90;;;;;;5099667;28;20187;-45
2022/05/26 12:00:18;;;;;;;6.00;1.50;;;21.90;99.90;;;;;;5099649;28;20155;-45
2022/05/26 12:03:04;;;;;;;3.30;1.50;;;21.80;99.90;;;;;;5097689;28;20179;-40
2022/05/26 12:05:30;;;;;;;4.50;1.43;;;21.80;99.90;;;;;;5093692;28;20181;-41
2022/05/26 12:08:06;;;;;;;4.73;1.43;;;22.00;99.90;;;;;;5095227;28;20186;-42
2022/05/26 12:11:00;;;;;;;4.53;1.60;;;22.20;99.90;;;;;;5095221;28;20644;-40
2022/05/26 12:13:29;;;;;;;2.20;1.20;;;22.30;99.90;;;;;;5045206;28;20192;-41
2022/05/26 12:16:06;;;;;;;4.37;1.33;;;22.30;99.90;;;;;;5094922;28;20536;-40
2022/05/26 12:19:02;;;;;;;5.53;1.50;;;22.20;99.90;;;;;;5095407;28;20244;-40
2022/05/26 12:21:31;;;;;;;2.57;1.50;;;22.30;99.90;;;;;;5093144;28;20207;-40
2022/05/26 12:23:58;;;;;;;4.63;1.20;;;22.50;99.90;;;;;;5095531;28;20186;-39
2022/05/26 12:26:47;;;;;;;3.30;1.60;;;22.70;99.90;;;;;;5094900;28;20562;-40
2022/05/26 12:29:46;;;;;;;4.77;1.83;;;22.70;99.90;;;;;;5094543;28;20690;-38
2022/05/26 12:32:17;;;;;;;3.90;1.40;;;22.70;99.90;;;;;;5095684;28;20576;-41
2022/05/26 12:35:01;;;;;;;3.27;1.53;;;22.80;99.90;;;;;;5094744;28;20250;-41
2022/05/26 12:37:54;;;;;;;4.20;1.40;;;23.00;99.90;;;;;;5095446;28;20194;-42
2022/05/26 12:40:32;;;;;;;4.70;1.50;;;23.10;99.90;;;;;;5094692;28;20238;-40
2022/05/26 12:43:11;;;;;;;2.50;1.40;;;23.00;99.90;;;;;;5094850;28;20626;-40
2022/05/26 12:45:46;;;;;;;3.83;1.80;;;23.00;99.90;;;;;;5094545;28;20639;-40
2022/05/26 12:48:45;;;;;;;6.47;2.07;;;23.00;99.90;;;;;;5094574;28;20198;-39
2022/05/26 12:51:12;;;;;;;8.83;2.00;;;23.20;99.90;;;;;;5094125;28;20216;-40
2022/05/26 12:53:45;;;;;;;3.93;1.90;;;23.40;99.90;;;;;;5094179;28;20246;-37
2022/05/26 12:56:14;;;;;;;4.60;1.97;;;23.60;99.90;;;;;;5094218;28;20617;-38
2022/05/26 12:58:56;;;;;;;2.20;1.20;;;23.80;99.90;;;;;;5094356;28;20244;-41
2022/05/26 13:01:24;;;;;;;4.63;1.80;;;24.00;99.90;;;;;;5094100;28;20216;-40
2022/05/26 13:04:15;;;;;;;4.43;1.50;;;24.10;99.90;;;;;;5094195;28;20183;-40
2022/05/26 13:06:43;;;;;;;3.90;1.53;;;24.10;99.90;;;;;;5093950;28;20567;-40
2022/05/26 13:09:18;;;;;;;5.37;1.80;;;24.00;99.90;;;;;;5093826;28;20191;-40
2022/05/26 13:11:55;;;;;;;6.03;2.00;;;23.90;99.90;;;;;;5094004;28;20181;-41
2022/05/26 13:14:23;;;;;;;2.73;1.40;;;23.90;99.90;;;;;;5094112;28;20194;-42
2022/05/26 13:17:16;;;;;;;4.33;1.50;;;23.90;99.90;;;;;;5093824;28;20615;-41
2022/05/26 13:19:45;;;;;;;4.80;1.60;;;23.80;99.90;;;;;;5093713;28;20155;-41
2022/05/26 13:22:28;;;;;;;3.23;1.87;;;23.80;99.90;;;;;;5094058;28;20159;-40
2022/05/26 13:24:56;;;;;;;4.03;1.73;;;23.60;99.90;;;;;;5094450;28;20206;-42
2022/05/26 13:27:25;;;;;;;4.77;1.63;;;23.60;99.90;;;;;;5093670;28;20557;-41
2022/05/26 13:29:53;;;;;;;3.40;1.67;;;23.60;99.90;;;;;;5093938;28;20187;-42
2022/05/26 13:35:19;;;;;;;2.20;1.67;;;23.70;99.90;;;;;;5093857;28;20303;-41
2022/05/26 13:37:45;;;;;;;3.13;1.73;;;23.80;99.90;;;;;;5094089;28;20191;-41
2022/05/26 13:40:21;;;;;;;3.07;1.50;;;23.60;99.90;;;;;;5093701;28;20160;-38
2022/05/26 13:42:50;;;;;;;7.77;2.00;;;23.50;99.90;;;;;;5093512;28;20159;-42
2022/05/26 13:45:31;;;;;;;3.23;2.13;;;23.50;99.90;;;;;;5093531;28;20182;-41
2022/05/26 13:48:29;;;;;;;4.50;2.00;;;23.60;99.90;;;;;;5093692;28;20677;-39